createdAt,value
2018-06-18T05:23:43.134Z,18.72
2018-06-18T05:24:41.585Z,18.72
2018-06-18T05:26:46.068Z,18.74
2018-06-18T05:27:46.022Z,18.71
2018-06-18T05:29:44.984Z,18.82
2018-06-18T05:30:44.002Z,18.78
2018-06-18T05:32:42.496Z,18.71
2018-06-18T05:33:41.929Z,18.71
2018-06-18T05:35:41.389Z,18.75
2018-06-18T05:36:40.910Z,18.79
2018-06-18T05:38:40.529Z,18.76
2018-06-18T05:39:40.556Z,18.84
2018-06-18T05:41:38.496Z,18.94
2018-06-18T05:42:38.497Z,18.96
2018-06-18T05:44:36.587Z,19.12
2018-06-18T05:45:36.616Z,19.07
2018-06-18T05:47:35.604Z,19.20
2018-06-18T05:48:34.721Z,19.24
2018-06-18T05:50:33.789Z,19.25
2018-06-18T05:51:33.672Z,19.32
2018-06-18T05:53:34.197Z,19.35
2018-06-18T05:54:34.100Z,19.37
2018-06-18T05:56:33.107Z,19.43
2018-06-18T05:57:32.237Z,19.34
2018-06-18T05:59:32.724Z,19.50
2018-06-18T06:00:32.711Z,19.46
2018-06-18T06:02:28.718Z,19.53
2018-06-18T06:03:28.732Z,19.53
2018-06-18T06:05:28.647Z,19.53
2018-06-18T06:06:27.641Z,19.57
2018-06-18T06:08:29.222Z,19.67
2018-06-18T06:09:28.091Z,19.70
2018-06-18T06:11:26.064Z,19.68
2018-06-18T06:12:26.572Z,19.75
2018-06-18T06:14:23.584Z,19.79
2018-06-18T06:15:24.039Z,19.70
2018-06-18T06:17:24.481Z,19.86
2018-06-18T06:18:23.532Z,19.86
2018-06-18T06:20:22.944Z,19.89
2018-06-18T06:21:23.477Z,19.90
2018-06-18T06:23:22.129Z,19.90
2018-06-18T06:24:22.629Z,19.98
2018-06-18T06:26:22.621Z,20.12
2018-06-18T06:27:23.087Z,20.12
2018-06-18T06:29:23.546Z,20.32
2018-06-18T06:30:23.069Z,20.40
2018-06-18T06:32:20.973Z,20.54
2018-06-18T06:33:20.978Z,20.64
2018-06-18T06:35:20.967Z,20.58
2018-06-18T06:36:19.957Z,20.61
2018-06-18T06:38:20.098Z,20.79
2018-06-18T06:39:19.609Z,20.96
2018-06-18T06:41:18.045Z,21.28
2018-06-18T06:42:17.679Z,21.38
2018-06-18T06:44:17.189Z,21.55
2018-06-18T06:45:16.651Z,21.52
2018-06-18T06:47:16.623Z,21.48
2018-06-18T06:48:17.116Z,21.41
2018-06-18T06:50:17.113Z,21.34
2018-06-18T06:51:17.121Z,21.43
2018-06-18T06:53:13.665Z,21.45
2018-06-18T06:54:13.655Z,21.34
2018-06-18T06:56:14.574Z,21.25
2018-06-18T06:57:14.107Z,21.21
2018-06-18T06:59:15.009Z,21.18
2018-06-18T07:00:15.503Z,21.19
2018-06-18T07:02:17.017Z,21.23
2018-06-18T07:03:15.025Z,21.27
2018-06-18T07:05:13.490Z,21.16
2018-06-18T07:06:13.941Z,21.09
2018-06-18T07:08:08.960Z,21.12
2018-06-18T07:09:09.401Z,20.98
2018-06-18T07:11:08.897Z,20.86
2018-06-18T07:12:07.886Z,20.91
2018-06-18T07:14:09.282Z,20.82
2018-06-18T07:15:09.300Z,20.79
2018-06-18T07:17:11.259Z,20.81
2018-06-18T07:18:13.198Z,20.76
2018-06-18T07:20:10.293Z,20.79
2018-06-18T07:21:09.236Z,20.75
2018-06-18T07:23:08.269Z,20.68
2018-06-18T07:24:08.116Z,20.74
2018-06-18T07:26:08.262Z,20.64
2018-06-18T07:27:07.801Z,20.61
2018-06-18T07:29:06.627Z,20.67
2018-06-18T07:30:06.676Z,20.66
2018-06-18T07:32:30.529Z,20.58
2018-06-18T07:40:22.870Z,20.64
2018-06-18T07:41:22.905Z,20.58
2018-06-18T07:43:26.664Z,20.56
2018-06-18T07:44:23.434Z,20.60
2018-06-18T07:46:24.389Z,20.61
2018-06-18T07:47:24.795Z,20.72
2018-06-18T07:49:27.030Z,20.66
2018-06-18T07:50:26.817Z,20.63
2018-06-18T07:52:24.697Z,20.60
2018-06-18T07:53:24.760Z,20.49
2018-06-18T07:55:25.215Z,20.53
2018-06-18T07:56:26.142Z,20.41
2018-06-18T07:58:24.145Z,20.32
2018-06-18T07:59:23.387Z,20.16
2018-06-18T08:01:25.822Z,20.20
2018-06-18T08:02:23.798Z,20.23
2018-06-18T08:04:32.663Z,20.27
2018-06-18T08:05:31.090Z,20.29
2018-06-18T08:07:31.628Z,20.44
2018-06-18T08:08:31.933Z,20.53
2018-06-18T08:10:31.925Z,20.60
2018-06-18T08:11:36.797Z,20.60
2018-06-18T08:13:33.387Z,20.68
2018-06-18T08:14:33.769Z,20.78
2018-06-18T08:16:30.840Z,20.78
2018-06-18T08:19:28.351Z,20.94
2018-06-18T08:22:12.361Z,21.23
2018-06-18T08:23:10.878Z,21.30
2018-06-18T08:25:12.000Z,21.41
2018-06-18T08:26:11.585Z,21.41
2018-06-18T08:28:12.048Z,21.64
2018-06-18T08:29:13.085Z,21.61
2018-06-18T08:31:13.488Z,21.61
2018-06-18T08:32:13.222Z,21.62
2018-06-18T08:34:12.428Z,21.74
2018-06-18T08:35:11.670Z,21.78
2018-06-18T08:37:14.659Z,21.71
2018-06-18T08:38:12.304Z,21.64
2018-06-18T08:40:10.994Z,21.74
2018-06-18T08:42:57.075Z,21.90
2018-06-18T08:43:57.140Z,21.92
2018-06-18T08:45:57.564Z,21.94
2018-06-18T08:46:58.302Z,21.97
2018-06-18T08:48:59.050Z,22.05
2018-06-18T08:50:12.757Z,22.18
2018-06-18T08:52:00.111Z,22.14
2018-06-18T08:53:01.701Z,22.29
2018-06-18T08:55:10.018Z,22.54
2018-06-18T08:56:10.390Z,22.66
2018-06-18T08:58:12.477Z,22.71
2018-06-18T08:59:09.520Z,22.70
2018-06-18T09:01:15.651Z,22.61
2018-06-18T09:02:15.409Z,22.60
2018-06-18T09:04:15.864Z,22.64
2018-06-18T09:05:16.445Z,22.76
2018-06-18T09:07:14.830Z,22.88
2018-06-18T09:08:13.333Z,22.94
2018-06-18T09:10:12.259Z,23.14
2018-06-18T09:11:11.748Z,23.07
2018-06-18T09:13:11.798Z,23.32
2018-06-18T09:14:09.861Z,23.34
2018-06-18T09:16:10.364Z,23.37
2018-06-18T09:17:10.356Z,23.40
2018-06-18T09:19:08.322Z,23.34
2018-06-18T09:20:09.771Z,23.38
2018-06-18T09:22:08.764Z,23.18
2018-06-18T09:23:09.642Z,23.19
2018-06-18T09:25:09.782Z,23.10
2018-06-18T09:26:10.125Z,22.76
2018-06-18T09:28:09.224Z,22.66
2018-06-18T09:29:08.191Z,22.71
2018-06-18T09:31:05.800Z,22.84
2018-06-18T09:32:05.366Z,22.75
2018-06-18T09:34:02.230Z,22.79
2018-06-18T09:35:01.295Z,22.69
2018-06-18T09:36:58.248Z,22.70
2018-06-18T09:37:58.256Z,22.67
2018-06-18T09:39:54.716Z,22.88
2018-06-18T09:40:54.227Z,22.96
2018-06-18T09:42:50.166Z,22.97
2018-06-18T09:43:50.168Z,22.97
2018-06-18T09:45:46.153Z,23.24
2018-06-18T09:46:47.841Z,23.15
2018-06-18T09:48:46.753Z,23.24
2018-06-18T09:49:47.665Z,23.29
2018-06-18T09:51:48.069Z,23.14
2018-06-18T09:52:47.994Z,23.09
2018-06-18T09:54:48.182Z,23.14
2018-06-18T09:55:47.617Z,23.21
2018-06-18T09:57:48.512Z,23.12
2018-06-18T09:58:47.991Z,22.97
2018-06-18T10:00:52.534Z,22.73
2018-06-18T10:01:52.966Z,22.78
2018-06-18T10:03:55.046Z,22.73
2018-06-18T10:04:52.933Z,22.67
2018-06-18T10:06:56.916Z,22.71
2018-06-18T10:07:54.454Z,22.75
2018-06-18T10:09:56.402Z,22.70
2018-06-18T10:10:54.924Z,22.81
2018-06-18T10:12:55.359Z,22.82
2018-06-18T10:13:56.892Z,22.82
2018-06-18T10:15:56.309Z,22.92
2018-06-18T10:16:55.872Z,23.04
2018-06-18T10:18:56.392Z,23.07
2018-06-18T10:19:56.383Z,23.04
2018-06-18T10:21:57.273Z,23.25
2018-06-18T10:22:57.827Z,23.29
2018-06-18T10:24:57.327Z,23.37
2018-06-18T10:25:57.328Z,23.45
2018-06-18T10:27:58.205Z,23.60
2018-06-18T10:28:57.691Z,23.72
2018-06-18T10:30:58.816Z,23.84
2018-06-18T10:31:58.359Z,23.93
2018-06-18T10:33:58.730Z,24.22
2018-06-18T10:34:58.670Z,24.21
2018-06-18T10:37:00.158Z,24.26
2018-06-18T10:38:16.643Z,24.24
2018-06-18T10:40:06.665Z,24.36
2018-06-18T10:41:15.669Z,24.51
2018-06-18T10:43:26.857Z,24.61
2018-06-18T10:46:24.139Z,24.61
2018-06-18T10:47:22.715Z,24.63
2018-06-18T10:49:23.128Z,24.36
2018-06-18T10:50:24.077Z,24.33
2018-06-18T10:52:23.965Z,24.04
2018-06-18T10:53:26.421Z,23.87
2018-06-18T10:55:32.994Z,23.82
2018-06-18T10:57:57.052Z,23.82
2018-06-18T10:58:51.677Z,23.84
2018-06-18T11:00:53.560Z,23.87
2018-06-18T11:01:52.192Z,23.87
2018-06-18T11:03:58.392Z,23.75
2018-06-18T11:05:15.507Z,23.82
2018-06-18T11:07:04.185Z,23.82
2018-06-18T11:10:25.239Z,23.81
2018-06-18T11:10:47.459Z,23.87
2018-06-18T11:12:53.515Z,23.92
2018-06-18T11:15:40.829Z,23.90
2018-06-18T11:16:40.721Z,23.94
2018-06-18T11:18:41.232Z,23.89
2018-06-18T11:19:43.427Z,23.90
2018-06-18T11:21:42.493Z,23.89
2018-06-18T11:22:42.111Z,23.89
2018-06-18T11:24:44.180Z,23.92
2018-06-18T11:25:42.476Z,23.89
2018-06-18T11:27:42.981Z,23.90
2018-06-18T11:28:43.090Z,23.89
2018-06-18T11:30:53.395Z,23.82
2018-06-18T11:31:52.568Z,23.85
2018-06-18T11:34:24.367Z,23.90
2018-06-18T11:35:19.110Z,23.90
2018-06-18T11:37:19.438Z,23.87
2018-06-18T11:38:19.936Z,23.89
2018-06-18T11:40:32.478Z,23.79
2018-06-18T11:41:32.097Z,23.82
2018-06-18T11:43:39.117Z,23.84
2018-06-18T11:44:37.629Z,23.92
2018-06-18T11:46:39.681Z,23.90
2018-06-18T11:47:38.115Z,23.85
2018-06-18T11:49:39.103Z,23.89
2018-06-18T11:50:38.580Z,23.87
2018-06-18T11:52:40.604Z,23.90
2018-06-18T11:53:40.147Z,23.85
2018-06-18T11:55:40.643Z,24.08
2018-06-18T11:56:39.673Z,24.14
2018-06-18T11:58:42.005Z,24.21
2018-06-18T11:59:41.886Z,24.24
2018-06-18T12:01:42.464Z,24.07
2018-06-18T12:02:45.529Z,24.07
2018-06-18T12:04:44.349Z,23.99
2018-06-18T12:05:42.798Z,23.93
2018-06-18T12:07:44.270Z,23.89
2018-06-18T12:08:44.444Z,23.89
2018-06-18T12:10:50.771Z,23.90
2018-06-18T12:11:50.778Z,23.82
2018-06-18T12:13:50.877Z,23.84
2018-06-18T12:14:51.240Z,23.81
2018-06-18T12:16:51.581Z,23.63
2018-06-18T12:17:51.917Z,23.70
2018-06-18T12:19:52.685Z,23.75
2018-06-18T12:20:52.637Z,23.67
2018-06-18T12:22:52.266Z,23.67
2018-06-18T12:23:52.685Z,23.64
2018-06-18T12:25:53.626Z,23.66
2018-06-18T12:26:53.611Z,23.66
2018-06-18T12:28:53.692Z,23.63
2018-06-18T12:29:54.044Z,23.59
2018-06-18T12:31:54.584Z,23.50
2018-06-18T12:32:53.586Z,23.47
2018-06-18T12:34:54.520Z,23.50
2018-06-18T12:35:54.532Z,23.57
2018-06-18T12:37:55.547Z,23.55
2018-06-18T12:39:07.523Z,23.63
2018-06-18T12:40:55.166Z,23.60
2018-06-18T12:41:55.792Z,23.67
2018-06-18T12:43:53.529Z,23.59
2018-06-18T12:44:53.235Z,23.48
2018-06-18T12:48:41.182Z,23.38
2018-06-18T12:51:43.457Z,23.37
2018-06-18T12:52:42.771Z,23.22
2018-06-18T12:54:40.335Z,23.34
2018-06-18T12:57:16.580Z,23.34
2018-06-18T12:58:00.604Z,23.32
2018-06-18T13:00:01.005Z,23.35
2018-06-18T13:01:01.011Z,23.38
2018-06-18T13:03:01.959Z,23.74
2018-06-18T13:04:03.948Z,23.77
2018-06-18T13:06:02.919Z,23.93
2018-06-18T13:07:25.449Z,23.96
2018-06-18T13:09:03.468Z,23.97
2018-06-18T13:10:02.966Z,24.07
2018-06-18T13:13:26.954Z,24.04
2018-06-18T13:13:27.548Z,24.08
2018-06-18T13:15:29.298Z,24.44
2018-06-18T13:16:29.464Z,24.37
2018-06-18T13:23:42.941Z,24.82
2018-06-18T13:24:42.803Z,24.78
2018-06-18T13:26:47.469Z,24.89
2018-06-18T13:28:01.717Z,24.92
2018-06-18T13:29:48.722Z,24.78
2018-06-18T13:30:49.742Z,24.63
2018-06-18T13:34:01.278Z,24.33
2018-06-18T13:35:42.951Z,24.29
2018-06-18T13:37:06.084Z,24.26
2018-06-18T13:38:07.243Z,24.08
2018-06-18T13:40:33.165Z,23.90
2018-06-18T13:41:32.335Z,23.82
2018-06-18T13:43:32.992Z,23.77
2018-06-18T13:44:34.985Z,23.67
2018-06-18T13:46:33.970Z,23.60
2018-06-18T13:47:33.935Z,23.59
2018-06-18T13:51:49.441Z,23.42
2018-06-18T13:52:34.528Z,23.37
2018-06-18T13:54:34.034Z,23.37
2018-06-18T13:55:34.037Z,23.42
2018-06-18T13:57:36.504Z,23.37
2018-06-18T13:58:34.594Z,23.40
2018-06-18T14:00:32.539Z,23.37
2018-06-18T14:03:52.548Z,23.38
2018-06-18T14:04:53.953Z,23.34
2018-06-18T14:06:57.865Z,23.37
2018-06-18T14:09:17.685Z,23.40
2018-06-18T14:10:17.747Z,23.07
2018-06-18T14:12:21.409Z,23.01
2018-06-18T14:13:20.440Z,22.97
2018-06-18T14:15:34.423Z,23.10
2018-06-18T14:17:54.443Z,23.14
2018-06-18T14:20:08.237Z,23.12
2018-06-18T14:21:08.725Z,23.06
2018-06-18T14:23:11.308Z,23.10
2018-06-18T14:25:23.684Z,23.21
2018-06-18T14:26:22.785Z,23.38
2018-06-18T14:28:21.274Z,23.48
2018-06-18T14:29:21.781Z,23.48
2018-06-18T14:31:19.923Z,23.57
2018-06-18T14:32:35.573Z,23.55
2018-06-18T14:40:37.383Z,23.74
2018-06-18T14:51:35.761Z,23.96
2018-06-18T14:52:35.796Z,23.94
2018-06-18T14:55:39.745Z,23.84
2018-06-18T14:56:37.130Z,23.84
2018-06-18T15:00:39.487Z,23.93
2018-06-18T15:07:10.577Z,24.29
2018-06-18T15:07:44.892Z,24.40
2018-06-18T15:12:18.768Z,24.66
2018-06-18T15:16:15.011Z,24.92
2018-06-18T15:31:43.680Z,25.00
2018-06-18T15:38:11.214Z,25.04
2018-06-18T15:41:21.779Z,24.83
2018-06-18T15:43:40.929Z,24.71
2018-06-18T15:46:22.812Z,24.58
2018-06-18T15:47:22.281Z,24.52
2018-06-18T15:51:12.951Z,24.30
2018-06-18T15:54:12.117Z,24.26
2018-06-18T15:55:38.130Z,24.32
2018-06-18T16:10:47.626Z,24.56
2018-06-18T16:11:24.394Z,24.56
2018-06-18T16:13:50.271Z,24.52
2018-06-18T16:15:58.221Z,24.64
2018-06-18T16:16:57.701Z,24.59
2018-06-18T16:21:26.930Z,24.61
2018-06-18T16:22:28.638Z,24.59
2018-06-18T16:24:29.568Z,24.55
2018-06-18T16:25:29.619Z,24.56
2018-06-18T16:30:31.502Z,24.46
2018-06-18T16:32:54.370Z,24.66
2018-06-18T16:33:51.614Z,24.61
2018-06-18T16:36:17.672Z,24.66
2018-06-18T16:39:11.683Z,24.71
2018-06-18T16:59:05.719Z,25.78
2018-06-18T16:59:58.247Z,25.51
2018-06-18T17:06:40.244Z,25.02
2018-06-18T17:07:39.123Z,25.02
2018-06-18T17:09:35.750Z,25.01
2018-06-18T17:10:35.081Z,25.01
2018-06-18T17:13:00.915Z,24.87
2018-06-18T17:17:26.501Z,24.74
2018-06-18T17:18:24.850Z,24.63
2018-06-18T17:20:30.943Z,24.67
2018-06-18T17:24:13.517Z,24.66
2018-06-18T17:26:51.351Z,24.82
2018-06-18T17:27:22.119Z,24.78
2018-06-18T17:30:24.663Z,24.80
2018-06-18T17:30:32.229Z,24.66
2018-06-18T17:33:33.718Z,24.55
2018-06-18T17:34:34.256Z,24.48
2018-06-18T17:36:34.113Z,24.32
2018-06-18T17:37:35.008Z,24.34
2018-06-18T17:39:34.555Z,24.27
2018-06-18T17:40:34.504Z,24.30
2018-06-18T17:42:35.483Z,24.19
2018-06-18T17:43:36.479Z,24.30
2018-06-18T17:45:36.996Z,24.26
2018-06-18T17:46:36.438Z,24.26
2018-06-18T17:48:35.927Z,24.26
2018-06-18T17:49:37.000Z,24.30
2018-06-18T17:51:37.414Z,24.22
2018-06-18T17:52:36.451Z,24.29
2018-06-18T17:54:35.388Z,24.29
2018-06-18T17:55:35.351Z,24.24
2018-06-18T17:57:36.863Z,24.29
2018-06-18T17:58:37.832Z,24.21
2018-06-18T18:00:35.340Z,24.32
2018-06-18T18:01:34.976Z,24.37
2018-06-18T18:03:35.477Z,24.26
2018-06-18T18:04:36.515Z,24.26
2018-06-18T18:06:37.481Z,24.29
2018-06-18T18:07:35.934Z,24.33
2018-06-18T18:09:32.971Z,24.12
2018-06-18T18:10:32.932Z,24.02
2018-06-18T18:12:33.450Z,23.97
2018-06-18T18:13:33.946Z,24.12
2018-06-18T18:15:34.847Z,24.12
2018-06-18T18:16:34.825Z,24.09
2018-06-18T18:18:32.787Z,24.08
2018-06-18T18:19:32.111Z,24.12
2018-06-18T18:21:28.658Z,24.09
2018-06-18T18:22:27.646Z,24.02
2018-06-18T18:24:28.600Z,24.21
2018-06-18T18:25:28.092Z,24.11
2018-06-18T18:27:25.101Z,24.04
2018-06-18T18:28:25.106Z,23.97
2018-06-18T18:30:20.095Z,23.72
2018-06-18T18:31:20.099Z,23.79
2018-06-18T18:33:20.559Z,23.63
2018-06-18T18:34:20.590Z,23.60
2018-06-18T18:36:22.071Z,23.67
2018-06-18T18:37:21.533Z,23.64
2018-06-18T18:39:19.089Z,23.64
2018-06-18T18:40:19.077Z,23.63
2018-06-18T18:42:20.950Z,23.63
2018-06-18T18:43:19.513Z,23.62
2018-06-18T18:45:18.063Z,23.47
2018-06-18T18:46:18.015Z,23.52
2018-06-18T18:48:18.471Z,23.47
2018-06-18T18:49:18.021Z,23.52
2018-06-18T18:51:16.077Z,23.50
2018-06-18T18:52:16.519Z,23.50
2018-06-18T18:54:14.914Z,23.42
2018-06-18T18:55:14.981Z,23.47
2018-06-18T18:57:11.913Z,23.41
2018-06-18T18:58:12.066Z,23.38
2018-06-18T19:00:10.859Z,23.18
2018-06-18T19:01:10.796Z,23.26
2018-06-18T19:03:09.076Z,23.29
2018-06-18T19:04:08.338Z,23.22
2018-06-18T19:06:10.455Z,23.09
2018-06-18T19:07:09.709Z,23.04
2018-06-18T19:09:07.671Z,22.96
2018-06-18T19:10:06.857Z,23.01
2018-06-18T19:12:08.495Z,23.00
2018-06-18T19:13:07.460Z,22.91
2018-06-18T19:15:26.949Z,22.88
2018-06-18T19:16:35.219Z,22.88
2018-06-18T19:18:23.559Z,22.89
2018-06-18T19:19:22.570Z,22.81
2018-06-18T19:21:25.932Z,22.75
2018-06-18T19:22:23.855Z,22.67
2018-06-18T19:25:12.087Z,22.66
2018-06-18T19:25:55.919Z,22.66
2018-06-18T19:28:27.268Z,22.61
2018-06-18T19:29:13.704Z,22.63
2018-06-18T19:31:20.532Z,22.54
2018-06-18T19:31:58.708Z,22.52
2018-06-18T19:34:09.597Z,22.38
2018-06-18T19:35:08.983Z,22.39
2018-06-18T19:41:08.567Z,22.24
2018-06-18T19:42:34.776Z,22.12
2018-06-18T19:43:34.805Z,22.09
2018-06-18T19:53:27.078Z,22.05
2018-06-18T19:54:40.247Z,21.93
2018-06-18T19:56:22.794Z,21.92
2018-06-18T19:57:22.329Z,21.96
2018-06-18T19:59:24.849Z,21.83
2018-06-18T20:00:23.291Z,21.73
2018-06-18T20:02:29.797Z,21.62
2018-06-18T20:03:28.300Z,21.61
2018-06-18T20:05:27.739Z,21.61
2018-06-18T20:06:26.769Z,21.58
2018-06-18T20:08:26.752Z,21.64
2018-06-18T20:09:27.342Z,21.52
2018-06-18T20:11:28.357Z,21.62
2018-06-18T20:14:28.152Z,21.41
2018-06-18T20:15:32.140Z,21.41
2018-06-18T20:17:26.617Z,21.38
2018-06-18T20:18:25.783Z,21.34
2018-06-18T20:20:25.211Z,21.31
2018-06-18T20:21:23.873Z,21.38
2018-06-18T20:23:24.372Z,21.34
2018-06-18T20:24:24.814Z,21.28
2018-06-18T20:26:24.773Z,21.36
2018-06-18T20:27:24.920Z,21.30
2018-06-18T20:29:25.299Z,21.28
2018-06-18T20:30:25.736Z,21.33
2018-06-18T20:32:30.855Z,21.30
2018-06-18T20:33:25.745Z,21.33
2018-06-18T20:35:26.674Z,21.33
2018-06-18T20:36:26.153Z,21.28
2018-06-18T20:38:43.683Z,21.28
2018-06-18T20:39:28.628Z,21.31
2018-06-18T20:41:28.169Z,21.34
2018-06-18T20:42:28.633Z,21.31
2018-06-18T20:44:28.685Z,21.34
2018-06-18T20:45:28.676Z,21.34
2018-06-18T20:47:28.599Z,21.31
2018-06-18T20:48:27.510Z,21.36
2018-06-18T20:52:20.807Z,21.21
2018-06-18T20:53:21.013Z,21.12
2018-06-18T20:55:20.320Z,21.13
2018-06-18T20:56:20.265Z,21.08
2018-06-18T20:58:22.322Z,20.98
2018-06-18T20:59:22.207Z,20.98
2018-06-18T21:01:23.157Z,20.97
2018-06-18T21:02:22.581Z,20.90
2018-06-18T21:04:22.985Z,20.79
2018-06-18T21:05:22.990Z,20.91
2018-06-18T21:07:23.465Z,20.86
2018-06-18T21:08:23.484Z,20.90
2018-06-18T21:12:48.610Z,20.91
2018-06-18T21:13:48.529Z,20.88
2018-06-18T21:15:50.569Z,20.86
2018-06-18T21:18:27.516Z,20.82
2018-06-18T21:19:26.574Z,20.79
2018-06-18T21:21:26.691Z,20.71
2018-06-18T21:22:26.147Z,20.71
2018-06-18T21:24:26.526Z,20.61
2018-06-18T21:25:26.539Z,20.60
2018-06-18T21:27:25.591Z,20.57
2018-06-18T21:28:25.548Z,20.54
2018-06-18T21:30:25.170Z,20.56
2018-06-18T21:31:25.685Z,20.60
2018-06-18T21:33:26.141Z,20.56
2018-06-18T21:34:27.004Z,20.58
2018-06-18T21:36:43.579Z,20.58
2018-06-18T21:37:47.723Z,20.54
2018-06-18T21:40:05.596Z,20.53
2018-06-18T21:54:37.895Z,20.48
2018-06-18T21:55:51.212Z,20.44
2018-06-18T21:57:36.381Z,20.41
2018-06-18T21:58:39.315Z,20.42
2018-06-18T22:00:42.447Z,20.46
2018-06-18T22:01:41.862Z,20.38
2018-06-18T22:03:45.354Z,20.44
2018-06-18T22:04:46.842Z,20.37
